Time;durP1;ratioP1;P1;durP2;ratioP2;P2;SDS_P1;SDS_P2;PMS_P1;PMS_P2;Temp;Humidity;BMP_temperature;BMP_pressure;BME280_temperature;BME280_humidity;BME280_pressure;Samples;Min_cycle;Max_cycle;Signal;HPM_P1;HPM_P2
2022/03/26 00:01:51;;;;;;;14.15;7.85;;;6.20;75.90;;;;;;5076405;28;20039;-81
2022/03/26 00:04:18;;;;;;;15.75;10.10;;;6.20;75.90;;;;;;5095118;28;20039;-81
2022/03/26 00:06:43;;;;;;;14.27;8.93;;;6.20;76.00;;;;;;5094751;28;20099;-82
2022/03/26 00:09:09;;;;;;;14.32;9.05;;;6.20;76.10;;;;;;5094872;28;20111;-81
2022/03/26 00:11:35;;;;;;;11.52;7.80;;;6.10;76.10;;;;;;5094797;28;20052;-82
2022/03/26 00:14:01;;;;;;;12.35;7.93;;;6.10;76.20;;;;;;5094740;28;20032;-82
2022/03/26 00:16:27;;;;;;;13.98;9.50;;;6.10;76.20;;;;;;5094846;28;20535;-81
2022/03/26 00:18:52;;;;;;;11.18;8.38;;;6.10;76.20;;;;;;5094924;28;20054;-82
2022/03/26 00:21:18;;;;;;;14.25;8.32;;;6.10;76.20;;;;;;5094840;28;20030;-83
2022/03/26 00:23:44;;;;;;;14.38;8.98;;;6.10;76.30;;;;;;5095229;28;20020;-82
2022/03/26 00:26:11;;;;;;;16.52;9.27;;;6.10;76.20;;;;;;5094832;28;20072;-82
2022/03/26 00:28:38;;;;;;;14.68;7.22;;;6.10;76.30;;;;;;5095549;28;20031;-83
2022/03/26 00:31:07;;;;;;;12.93;8.52;;;6.10;76.40;;;;;;5103701;28;20060;-81
2022/03/26 00:33:33;;;;;;;21.35;9.73;;;6.10;76.40;;;;;;5087885;28;20027;-82
2022/03/26 00:35:59;;;;;;;11.85;7.82;;;6.00;76.20;;;;;;5095894;28;20062;-82
2022/03/26 00:38:25;;;;;;;17.30;9.10;;;6.00;76.30;;;;;;5094602;28;20020;-82
2022/03/26 00:40:51;;;;;;;20.42;8.52;;;6.00;76.40;;;;;;5094161;28;20020;-82
2022/03/26 00:43:16;;;;;;;16.95;8.70;;;6.00;76.40;;;;;;5094161;28;20094;-82
2022/03/26 00:45:45;;;;;;;15.95;9.60;;;6.00;76.30;;;;;;5091603;28;20024;-82
2022/03/26 00:48:11;;;;;;;15.35;9.15;;;6.00;76.40;;;;;;5094052;28;20511;-81
2022/03/26 00:50:37;;;;;;;11.07;8.60;;;6.00;76.30;;;;;;5094716;28;20032;-82
2022/03/26 00:53:03;;;;;;;11.48;7.85;;;6.00;76.20;;;;;;5094122;28;20020;-83
2022/03/26 00:55:29;;;;;;;12.68;7.82;;;6.00;76.20;;;;;;5094515;28;20034;-82
2022/03/26 00:57:55;;;;;;;13.15;8.93;;;6.00;76.20;;;;;;5094749;28;20023;-82
2022/03/26 01:00:20;;;;;;;12.07;8.38;;;6.00;76.00;;;;;;5095059;28;20099;-82
2022/03/26 01:02:47;;;;;;;11.85;8.88;;;6.10;76.00;;;;;;5101648;28;20039;-80
2022/03/26 01:05:13;;;;;;;14.60;8.60;;;6.10;75.90;;;;;;5080389;28;20046;-83
2022/03/26 01:07:39;;;;;;;14.32;9.32;;;6.10;75.80;;;;;;5095920;28;20027;-81
2022/03/26 01:10:07;;;;;;;13.32;7.65;;;6.10;75.70;;;;;;5094881;28;20098;-83
2022/03/26 01:12:33;;;;;;;13.90;7.43;;;6.10;75.50;;;;;;5093966;28;20085;-82
2022/03/26 01:14:59;;;;;;;14.25;7.30;;;6.20;75.40;;;;;;5093923;28;20467;-83
2022/03/26 01:17:25;;;;;;;10.10;6.93;;;6.20;75.30;;;;;;5092567;28;20144;-81
2022/03/26 01:19:51;;;;;;;9.45;7.85;;;6.30;75.10;;;;;;5093903;28;20098;-81
2022/03/26 01:22:17;;;;;;;12.32;8.18;;;6.30;74.80;;;;;;5075295;28;20050;-81
2022/03/26 01:24:43;;;;;;;14.55;9.10;;;6.40;74.60;;;;;;5093586;28;20020;-82
2022/03/26 01:27:09;;;;;;;13.15;8.27;;;6.40;74.30;;;;;;5093483;28;20081;-82
2022/03/26 01:29:38;;;;;;;18.55;8.45;;;6.40;74.10;;;;;;5093503;28;20504;-83
2022/03/26 01:32:07;;;;;;;14.10;7.63;;;6.50;73.90;;;;;;5093887;28;20042;-82
2022/03/26 01:34:33;;;;;;;13.30;8.82;;;6.50;73.50;;;;;;5094698;28;20020;-84
2022/03/26 01:36:59;;;;;;;9.63;7.38;;;6.50;73.40;;;;;;5095106;28;20102;-83
2022/03/26 01:39:25;;;;;;;14.35;8.98;;;6.60;73.10;;;;;;5093764;28;20024;-84
2022/03/26 01:41:50;;;;;;;14.52;7.50;;;6.60;72.80;;;;;;5093770;28;20504;-81
2022/03/26 01:44:16;;;;;;;13.82;8.02;;;6.60;72.60;;;;;;5093241;28;20017;-82
2022/03/26 01:46:51;;;;;;;11.70;8.20;;;6.60;72.40;;;;;;5074754;28;20028;-83
2022/03/26 01:49:17;;;;;;;11.10;6.93;;;6.60;72.30;;;;;;5092410;28;20065;-83
2022/03/26 01:51:43;;;;;;;13.57;8.10;;;6.60;72.70;;;;;;5092704;28;20099;-82
2022/03/26 01:54:10;;;;;;;11.40;7.25;;;6.60;71.90;;;;;;5074856;28;20143;-82
2022/03/26 01:56:36;;;;;;;14.18;8.60;;;6.60;71.70;;;;;;5092336;28;20043;-83
2022/03/26 01:59:04;;;;;;;13.77;8.68;;;6.50;71.70;;;;;;5092830;28;20032;-83
2022/03/26 02:01:31;;;;;;;16.20;9.32;;;6.50;71.60;;;;;;5092743;28;20108;-82
2022/03/26 02:03:57;;;;;;;13.00;8.57;;;6.50;71.60;;;;;;5074480;28;20164;-82
2022/03/26 02:06:28;;;;;;;12.80;7.80;;;6.50;71.50;;;;;;5092990;28;20040;-83
2022/03/26 02:08:54;;;;;;;12.90;7.97;;;6.50;71.30;;;;;;5074942;28;20051;-81
2022/03/26 02:11:21;;;;;;;11.67;8.20;;;6.60;71.00;;;;;;5092932;28;20066;-83
2022/03/26 02:13:55;;;;;;;13.23;8.60;;;6.60;70.70;;;;;;5092739;28;20473;-84
2022/03/26 02:16:21;;;;;;;9.20;7.18;;;6.60;70.40;;;;;;5092517;28;20047;-83
2022/03/26 02:18:49;;;;;;;10.83;7.83;;;6.60;70.20;;;;;;5093140;28;20509;-84
2022/03/26 02:21:19;;;;;;;13.50;9.00;;;6.70;70.10;;;;;;5094763;28;20260;-81
2022/03/26 02:23:46;;;;;;;14.82;8.60;;;6.70;70.00;;;;;;5096000;28;20036;-83
2022/03/26 02:26:20;;;;;;;15.52;8.68;;;6.70;70.00;;;;;;5093345;28;20020;-83
2022/03/26 02:28:49;;;;;;;12.82;7.53;;;6.80;69.70;;;;;;5092883;28;20115;-82
2022/03/26 02:31:16;;;;;;;11.80;8.27;;;6.70;69.50;;;;;;5092618;28;20078;-82
2022/03/26 02:33:42;;;;;;;9.87;7.90;;;6.70;69.40;;;;;;5092790;28;20082;-82
2022/03/26 02:36:09;;;;;;;14.52;8.93;;;6.70;69.30;;;;;;5093265;28;20261;-82
2022/03/26 02:38:36;;;;;;;13.23;9.13;;;6.70;69.20;;;;;;5097405;28;20052;-82
2022/03/26 02:41:04;;;;;;;14.88;8.60;;;6.70;69.10;;;;;;5102317;28;20020;-81
2022/03/26 02:43:29;;;;;;;14.27;8.35;;;6.80;69.10;;;;;;5101121;28;20519;-81
2022/03/26 02:45:55;;;;;;;16.40;8.20;;;6.70;69.00;;;;;;5092369;28;20024;-82
2022/03/26 02:48:21;;;;;;;13.70;7.80;;;6.80;69.00;;;;;;5091970;28;20106;-81
2022/03/26 02:50:47;;;;;;;10.88;7.90;;;6.70;68.80;;;;;;5081165;28;20088;-80
2022/03/26 02:53:13;;;;;;;14.40;8.35;;;6.60;68.90;;;;;;5092083;28;20373;-81
2022/03/26 02:55:40;;;;;;;12.98;8.40;;;6.70;69.10;;;;;;5093127;28;20028;-81
2022/03/26 02:58:07;;;;;;;20.80;9.00;;;6.60;69.10;;;;;;5104057;28;20020;-81
2022/03/26 03:00:33;;;;;;;;;;;6.60;69.20;;;;;;5096314;28;20491;-80
2022/03/26 03:02:59;;;;;;;11.70;8.25;;;6.60;69.30;;;;;;5092445;28;19920;-81
2022/03/26 03:05:25;;;;;;;17.40;9.65;;;6.40;71.20;;;;;;5090911;28;20020;-82
2022/03/26 03:07:51;;;;;;;15.70;9.98;;;6.30;72.10;;;;;;5091977;28;20397;-82
2022/03/26 03:10:18;;;;;;;12.18;7.72;;;6.20;72.60;;;;;;5096239;28;20035;-80
2022/03/26 03:12:50;;;;;;;16.98;9.55;;;6.20;73.00;;;;;;5096156;28;20099;-81
2022/03/26 03:15:19;;;;;;;15.95;8.82;;;6.10;72.90;;;;;;5096438;28;20041;-80
2022/03/26 03:17:47;;;;;;;15.45;8.43;;;6.20;72.70;;;;;;5096123;28;20031;-80
2022/03/26 03:20:14;;;;;;;11.93;9.35;;;6.20;72.80;;;;;;5077735;28;20020;-82
2022/03/26 03:22:41;;;;;;;13.52;9.50;;;6.30;72.80;;;;;;5095865;28;20024;-82
2022/03/26 03:25:07;;;;;;;12.55;9.60;;;6.20;74.00;;;;;;5077235;28;20036;-80
2022/03/26 03:27:34;;;;;;;13.98;10.32;;;6.00;76.10;;;;;;5095798;28;20024;-80
2022/03/26 03:29:59;;;;;;;15.23;10.20;;;5.70;77.90;;;;;;5077495;28;20481;-81
2022/03/26 03:32:26;;;;;;;13.57;8.73;;;5.60;78.80;;;;;;5095451;28;20027;-81
2022/03/26 03:34:52;;;;;;;12.55;9.10;;;5.50;79.40;;;;;;5095590;28;20390;-80
2022/03/26 03:37:18;;;;;;;17.20;9.63;;;5.40;79.70;;;;;;5095485;28;20029;-81
2022/03/26 03:39:44;;;;;;;15.35;10.05;;;5.50;79.60;;;;;;5095542;28;20081;-81
2022/03/26 03:42:11;;;;;;;13.73;10.05;;;5.50;79.60;;;;;;5095362;28;20032;-81
2022/03/26 03:44:37;;;;;;;15.85;9.45;;;5.50;79.50;;;;;;5095565;28;20012;-79
2022/03/26 03:47:03;;;;;;;13.90;8.32;;;5.60;79.10;;;;;;5095648;28;20465;-81
2022/03/26 03:49:33;;;;;;;16.02;10.30;;;5.70;78.60;;;;;;5095296;28;20024;-80
2022/03/26 03:51:59;;;;;;;13.18;9.80;;;5.70;77.90;;;;;;5095264;28;20038;-82
2022/03/26 03:54:25;;;;;;;16.85;9.82;;;5.90;77.50;;;;;;5095577;28;20087;-82
2022/03/26 03:56:51;;;;;;;13.48;10.43;;;6.00;77.10;;;;;;5095295;28;20024;-80
2022/03/26 03:59:17;;;;;;;17.55;11.10;;;6.10;76.40;;;;;;5095507;28;20020;-80
2022/03/26 04:01:43;;;;;;;12.85;9.68;;;6.10;75.70;;;;;;5095034;28;20047;-81
2022/03/26 04:04:09;;;;;;;15.30;10.15;;;6.20;75.40;;;;;;5094917;28;20105;-81
2022/03/26 04:06:35;;;;;;;16.88;9.35;;;6.30;75.10;;;;;;5094856;28;20070;-81
2022/03/26 04:09:01;;;;;;;20.27;9.60;;;6.30;74.70;;;;;;5094858;28;20027;-81
2022/03/26 04:11:27;;;;;;;14.82;9.63;;;6.30;74.50;;;;;;5094792;28;20024;-80
2022/03/26 04:13:54;;;;;;;17.52;9.60;;;6.40;74.20;;;;;;5094758;28;20031;-81
2022/03/26 04:16:20;;;;;;;12.13;7.53;;;6.40;73.50;;;;;;5076597;28;20397;-80
2022/03/26 04:18:47;;;;;;;16.42;10.73;;;6.50;73.30;;;;;;5095535;28;20028;-80
2022/03/26 04:21:13;;;;;;;16.73;9.93;;;6.40;73.20;;;;;;5094472;28;20420;-82
2022/03/26 04:23:39;;;;;;;14.60;9.10;;;6.40;72.90;;;;;;5094950;28;20047;-81
2022/03/26 04:26:06;;;;;;;14.48;8.35;;;6.50;72.70;;;;;;5075895;28;20020;-82
2022/03/26 04:28:32;;;;;;;14.60;8.30;;;6.50;72.70;;;;;;5093298;28;20021;-81
2022/03/26 04:30:57;;;;;;;15.88;10.18;;;6.50;72.40;;;;;;5076558;28;20389;-82
2022/03/26 04:33:23;;;;;;;14.93;8.55;;;6.50;72.50;;;;;;5094569;28;20472;-82
2022/03/26 04:35:49;;;;;;;12.45;9.27;;;6.60;72.40;;;;;;5094512;28;20024;-82
2022/03/26 04:38:15;;;;;;;11.52;9.90;;;6.60;72.20;;;;;;5092989;28;20435;-82
2022/03/26 04:40:41;;;;;;;11.43;8.88;;;6.60;72.00;;;;;;5094412;28;20107;-83
2022/03/26 04:43:07;;;;;;;11.90;8.73;;;6.60;72.00;;;;;;5076260;28;20933;-82
2022/03/26 04:45:33;;;;;;;15.13;10.00;;;6.70;72.00;;;;;;5075464;28;20114;-82
2022/03/26 04:47:59;;;;;;;15.63;10.10;;;6.70;72.00;;;;;;5094957;28;20028;-82
2022/03/26 04:50:26;;;;;;;12.48;9.25;;;6.80;71.70;;;;;;5096570;28;20016;-80
2022/03/26 04:52:52;;;;;;;13.20;9.20;;;6.80;71.30;;;;;;5098387;28;20103;-81
2022/03/26 04:55:18;;;;;;;17.98;9.68;;;6.80;71.20;;;;;;5092080;28;20023;-81
2022/03/26 04:57:47;;;;;;;18.33;9.82;;;6.80;71.00;;;;;;5074309;28;20028;-82
2022/03/26 05:00:16;;;;;;;12.50;8.48;;;6.80;71.10;;;;;;5085541;28;20029;-81
2022/03/26 05:02:42;;;;;;;13.57;9.15;;;6.90;70.80;;;;;;5094234;28;20369;-83
2022/03/26 05:05:12;;;;;;;13.18;9.20;;;6.90;70.80;;;;;;5094572;28;20032;-81
2022/03/26 05:07:45;;;;;;;16.83;10.00;;;6.90;70.70;;;;;;5076234;28;20566;-81
2022/03/26 05:10:18;;;;;;;17.42;10.23;;;7.00;70.50;;;;;;5094038;28;20032;-83
2022/03/26 05:12:45;;;;;;;12.57;7.80;;;7.00;70.40;;;;;;5094293;28;20021;-83
2022/03/26 05:15:12;;;;;;;14.73;9.93;;;7.00;70.30;;;;;;5077762;28;20048;-82
2022/03/26 05:17:41;;;;;;;20.83;10.48;;;7.10;70.30;;;;;;5096490;28;20046;-80
2022/03/26 05:20:08;;;;;;;18.90;10.57;;;7.10;70.10;;;;;;5095103;28;20020;-81
2022/03/26 05:22:35;;;;;;;16.08;9.98;;;7.10;70.00;;;;;;5094655;28;20393;-80
2022/03/26 05:25:02;;;;;;;16.63;9.87;;;7.10;69.80;;;;;;5092463;28;20099;-82
2022/03/26 05:27:27;;;;;;;16.05;9.93;;;7.10;69.70;;;;;;5085215;28;20111;-81
2022/03/26 05:29:54;;;;;;;16.58;9.98;;;7.20;69.90;;;;;;5093517;28;20473;-82
2022/03/26 05:32:19;;;;;;;18.42;10.15;;;7.20;69.90;;;;;;5093032;28;20101;-81
2022/03/26 05:34:45;;;;;;;16.00;11.07;;;7.30;69.70;;;;;;5075565;28;20028;-82
2022/03/26 05:37:12;;;;;;;16.98;10.55;;;7.30;69.60;;;;;;5075535;28;20099;-83
2022/03/26 05:39:38;;;;;;;15.52;8.95;;;7.40;69.30;;;;;;5094783;28;20032;-84
2022/03/26 05:42:04;;;;;;;14.45;9.90;;;7.40;69.00;;;;;;5108847;28;20043;-84
2022/03/26 05:44:31;;;;;;;13.80;9.43;;;7.40;68.90;;;;;;5102231;28;20016;-83
2022/03/26 05:46:56;;;;;;;19.20;10.25;;;7.40;68.90;;;;;;5091118;28;20020;-82
2022/03/26 05:49:22;;;;;;;14.95;9.88;;;7.50;68.80;;;;;;5095451;28;20016;-83
2022/03/26 05:51:48;;;;;;;21.67;10.10;;;7.50;68.90;;;;;;5089968;28;20034;-82
2022/03/26 05:54:15;;;;;;;16.10;9.75;;;7.50;68.60;;;;;;5093373;28;20016;-81
2022/03/26 05:56:51;;;;;;;13.45;7.82;;;7.50;68.70;;;;;;5074974;28;20380;-82
2022/03/26 05:59:19;;;;;;;17.42;9.48;;;7.50;68.70;;;;;;5093361;28;20020;-82
2022/03/26 06:01:45;;;;;;;14.63;9.50;;;7.50;68.70;;;;;;5082363;28;20036;-83
2022/03/26 06:04:11;;;;;;;16.50;10.15;;;7.50;68.50;;;;;;5072535;28;20024;-82
2022/03/26 06:06:37;;;;;;;16.15;10.18;;;7.60;68.60;;;;;;5072490;28;20029;-82
2022/03/26 06:09:03;;;;;;;17.02;10.80;;;7.60;69.10;;;;;;5054597;28;20119;-84
2022/03/26 06:11:29;;;;;;;18.95;10.23;;;7.60;68.50;;;;;;5072559;28;20064;-82
2022/03/26 06:13:55;;;;;;;12.60;9.77;;;7.70;68.50;;;;;;5072754;28;20043;-82
2022/03/26 06:16:21;;;;;;;14.68;10.50;;;7.70;68.40;;;;;;5072439;28;20052;-82
2022/03/26 06:18:47;;;;;;;18.40;9.88;;;7.70;68.40;;;;;;5083521;28;20096;-81
2022/03/26 06:21:13;;;;;;;17.73;10.30;;;7.90;68.20;;;;;;5074495;28;20119;-85
2022/03/26 06:23:39;;;;;;;19.70;11.80;;;7.90;68.20;;;;;;5092655;28;20071;-80
2022/03/26 06:26:06;;;;;;;16.63;11.50;;;7.90;67.90;;;;;;5092497;28;20071;-82
2022/03/26 06:28:32;;;;;;;15.50;10.23;;;8.00;68.10;;;;;;5092586;28;20055;-82
2022/03/26 06:30:58;;;;;;;21.25;10.30;;;8.00;67.60;;;;;;5092801;28;20165;-81
2022/03/26 06:33:24;;;;;;;18.48;9.80;;;8.00;67.50;;;;;;5092808;28;20446;-82
2022/03/26 06:35:50;;;;;;;15.27;10.00;;;7.90;67.60;;;;;;5091519;28;20556;-81
2022/03/26 06:38:15;;;;;;;15.18;9.75;;;7.90;67.80;;;;;;5092871;28;20031;-82
2022/03/26 06:40:42;;;;;;;24.23;12.98;;;8.00;67.70;;;;;;5092478;28;20016;-83
2022/03/26 06:43:08;;;;;;;22.27;11.65;;;7.90;67.70;;;;;;5092288;28;20059;-81
2022/03/26 06:45:35;;;;;;;17.70;11.18;;;7.90;67.60;;;;;;5094011;28;20024;-83
2022/03/26 06:48:02;;;;;;;16.95;8.50;;;7.90;67.70;;;;;;5101127;28;20050;-83
2022/03/26 06:50:28;;;;;;;20.00;11.17;;;7.90;67.70;;;;;;5077729;28;20024;-84
2022/03/26 06:52:55;;;;;;;14.15;9.55;;;7.90;67.50;;;;;;5082186;28;20028;-80
2022/03/26 06:55:22;;;;;;;21.20;10.18;;;7.90;67.70;;;;;;5091793;28;20020;-84
2022/03/26 06:57:51;;;;;;;18.55;11.30;;;7.80;67.70;;;;;;5093317;28;20028;-81
2022/03/26 07:00:18;;;;;;;17.30;10.60;;;7.90;67.70;;;;;;5089972;28;20039;-82
2022/03/26 07:02:44;;;;;;;14.93;10.02;;;7.90;67.70;;;;;;5081770;28;20048;-81
2022/03/26 07:05:11;;;;;;;21.02;10.48;;;8.00;67.60;;;;;;5074719;28;20059;-82
2022/03/26 07:07:38;;;;;;;21.92;12.25;;;8.00;67.90;;;;;;5091557;28;20561;-80
2022/03/26 07:10:05;;;;;;;18.10;10.05;;;8.00;67.70;;;;;;5089823;28;20024;-80
2022/03/26 07:12:31;;;;;;;16.48;11.13;;;8.10;67.60;;;;;;5090722;28;20104;-81
2022/03/26 07:14:57;;;;;;;18.95;10.38;;;8.10;67.40;;;;;;5071167;28;20393;-81
2022/03/26 07:17:23;;;;;;;15.63;9.00;;;8.10;67.20;;;;;;5088614;28;20032;-82
2022/03/26 07:19:51;;;;;;;24.30;11.43;;;8.10;67.40;;;;;;5091437;28;20036;-84
2022/03/26 07:22:17;;;;;;;;;;;8.10;67.60;;;;;;5092210;28;20024;-81
2022/03/26 07:24:43;;;;;;;15.75;10.75;;;8.10;67.40;;;;;;5092005;28;20002;-80
2022/03/26 07:27:09;;;;;;;17.42;10.18;;;8.00;67.60;;;;;;5072672;28;20419;-81
2022/03/26 07:29:38;;;;;;;16.55;9.18;;;7.90;67.90;;;;;;5085196;28;20024;-80
2022/03/26 07:32:11;;;;;;;18.92;10.40;;;7.70;68.40;;;;;;5073398;28;20032;-80
2022/03/26 07:34:43;;;;;;;19.25;10.88;;;7.60;69.10;;;;;;5091065;28;20024;-80
2022/03/26 07:37:09;;;;;;;16.33;10.65;;;7.50;69.90;;;;;;5077914;28;20028;-79
2022/03/26 07:39:35;;;;;;;18.88;11.35;;;7.50;70.00;;;;;;5073610;28;20043;-81
2022/03/26 07:42:01;;;;;;;16.27;10.93;;;7.50;71.00;;;;;;5091686;28;20032;-84
2022/03/26 07:44:32;;;;;;;13.57;11.07;;;7.40;70.10;;;;;;5091580;28;20484;-81
2022/03/26 07:46:58;;;;;;;14.70;9.25;;;7.40;70.60;;;;;;5073247;28;20492;-80
2022/03/26 07:49:24;;;;;;;14.68;9.85;;;7.30;71.40;;;;;;5091749;28;20024;-82
2022/03/26 07:51:50;;;;;;;15.93;11.00;;;7.30;71.80;;;;;;5091956;28;20024;-80
2022/03/26 07:54:15;;;;;;;17.05;11.15;;;7.30;72.00;;;;;;5073264;28;20050;-82
2022/03/26 07:56:41;;;;;;;21.13;13.13;;;7.30;72.10;;;;;;5095388;28;20032;-79
2022/03/26 07:59:10;;;;;;;19.13;10.98;;;7.30;72.50;;;;;;5092607;28;20033;-84
2022/03/26 08:01:42;;;;;;;20.08;11.00;;;7.30;72.90;;;;;;5077442;28;20094;-87
2022/03/26 08:04:14;;;;;;;19.33;11.35;;;7.00;74.80;;;;;;5082013;28;20028;-83
2022/03/26 08:06:39;;;;;;;12.77;7.80;;;6.60;77.10;;;;;;5083704;28;20035;-83
2022/03/26 08:09:06;;;;;;;17.85;10.88;;;6.30;79.00;;;;;;5094867;28;20447;-86
2022/03/26 08:11:32;;;;;;;24.58;13.48;;;6.10;81.20;;;;;;5059982;28;20112;-87
2022/03/26 08:14:00;;;;;;;20.63;12.15;;;5.90;83.80;;;;;;5076268;28;20095;-84
2022/03/26 08:16:26;;;;;;;17.25;11.57;;;5.90;85.40;;;;;;5076812;28;20052;-86
2022/03/26 08:18:57;;;;;;;18.63;11.27;;;5.90;87.80;;;;;;5075551;28;20025;-83
2022/03/26 08:21:23;;;;;;;21.40;12.52;;;5.90;88.10;;;;;;5091304;28;20036;-80
2022/03/26 08:23:49;;;;;;;19.92;11.30;;;5.90;89.00;;;;;;5074912;28;20439;-85
2022/03/26 08:26:22;;;;;;;17.35;11.60;;;5.90;89.70;;;;;;5074845;28;20021;-81
2022/03/26 08:29:08;;;;;;;17.17;11.48;;;5.90;89.80;;;;;;5056933;28;20052;-84
2022/03/26 08:31:37;;;;;;;22.20;13.02;;;5.80;89.70;;;;;;5074442;28;20020;-82
2022/03/26 08:34:03;;;;;;;19.45;12.20;;;5.60;90.10;;;;;;5077149;28;20020;-81
2022/03/26 08:36:30;;;;;;;18.30;12.30;;;5.40;90.50;;;;;;5096365;28;20035;-80
2022/03/26 08:38:56;;;;;;;20.25;13.02;;;5.50;91.00;;;;;;5096989;28;20024;-82
2022/03/26 08:41:26;;;;;;;30.73;11.85;;;5.50;91.30;;;;;;5074891;28;20039;-80
2022/03/26 08:43:54;;;;;;;19.42;12.73;;;5.60;91.20;;;;;;5090052;28;20401;-78
2022/03/26 08:46:20;;;;;;;16.10;11.20;;;5.60;91.40;;;;;;5099425;28;20070;-79
2022/03/26 08:48:47;;;;;;;28.67;13.38;;;5.60;91.70;;;;;;5094903;28;20035;-77
2022/03/26 08:51:13;;;;;;;21.02;13.05;;;5.60;91.70;;;;;;5094546;28;20020;-80
2022/03/26 08:53:39;;;;;;;20.90;14.23;;;5.70;91.70;;;;;;5094897;28;20054;-79
2022/03/26 08:56:06;;;;;;;21.70;13.05;;;5.70;91.90;;;;;;5075646;28;20450;-78
2022/03/26 08:58:33;;;;;;;22.23;13.53;;;5.70;91.90;;;;;;5093821;28;20082;-81
2022/03/26 09:01:02;;;;;;;19.23;12.10;;;5.70;92.00;;;;;;5075660;28;20077;-79
2022/03/26 09:03:31;;;;;;;21.77;14.85;;;5.70;91.90;;;;;;5095097;28;20040;-81
2022/03/26 09:05:57;;;;;;;27.27;15.05;;;5.60;92.20;;;;;;5096854;28;20085;-79
2022/03/26 09:08:23;;;;;;;22.95;15.13;;;5.50;92.50;;;;;;5095403;28;20032;-80
2022/03/26 09:10:49;;;;;;;20.67;11.70;;;5.50;92.70;;;;;;5096756;28;20361;-80
2022/03/26 09:13:15;;;;;;;24.75;13.35;;;5.50;93.00;;;;;;5097701;28;20028;-78
2022/03/26 09:15:41;;;;;;;22.90;14.38;;;5.40;93.20;;;;;;5074660;28;20445;-79
2022/03/26 09:18:10;;;;;;;20.92;12.63;;;5.40;93.80;;;;;;5082757;28;20020;-79
2022/03/26 09:20:48;;;;;;;22.92;13.98;;;5.40;94.00;;;;;;5075475;28;20107;-80
2022/03/26 09:23:14;;;;;;;21.67;13.68;;;5.50;94.30;;;;;;5093641;28;20078;-77
2022/03/26 09:25:43;;;;;;;22.55;12.52;;;5.50;94.20;;;;;;5075462;28;20024;-78
2022/03/26 09:28:12;;;;;;;21.55;14.52;;;5.50;94.40;;;;;;5093568;28;20030;-78
2022/03/26 09:30:45;;;;;;;19.40;14.77;;;5.30;94.60;;;;;;5094010;28;20032;-77
2022/03/26 09:33:11;;;;;;;23.88;13.38;;;5.30;94.80;;;;;;5075587;28;20085;-78
2022/03/26 09:35:37;;;;;;;16.58;11.88;;;5.30;94.90;;;;;;5093123;28;20024;-76
2022/03/26 09:38:03;;;;;;;20.60;13.40;;;5.20;95.00;;;;;;5093059;28;20035;-77
2022/03/26 09:40:33;;;;;;;27.92;17.05;;;5.20;95.20;;;;;;5092126;28;20039;-78
2022/03/26 09:43:00;;;;;;;24.23;14.30;;;5.20;95.40;;;;;;5080137;28;20036;-82
2022/03/26 09:45:25;;;;;;;24.10;15.88;;;5.20;95.80;;;;;;5091033;28;20424;-80
2022/03/26 09:47:53;;;;;;;24.92;15.50;;;5.20;95.70;;;;;;5081831;28;20021;-80
2022/03/26 09:50:21;;;;;;;21.05;14.48;;;5.10;95.70;;;;;;5073080;28;20024;-82
2022/03/26 09:52:49;;;;;;;30.27;14.60;;;5.10;95.90;;;;;;5071226;28;20024;-80
2022/03/26 09:55:17;;;;;;;21.17;13.55;;;5.10;96.10;;;;;;5092480;28;20382;-79
2022/03/26 09:57:43;;;;;;;20.95;14.77;;;5.00;96.10;;;;;;5088961;28;20374;-77
2022/03/26 10:00:10;;;;;;;23.50;17.75;;;5.00;96.40;;;;;;5072858;28;20049;-79
2022/03/26 10:02:36;;;;;;;28.20;15.90;;;5.00;96.40;;;;;;5071021;28;20033;-80
2022/03/26 10:05:07;;;;;;;23.92;16.38;;;5.00;96.50;;;;;;5072543;28;20074;-80
2022/03/26 10:07:36;;;;;;;25.38;15.60;;;5.00;96.60;;;;;;5072393;28;20033;-80
2022/03/26 10:10:12;;;;;;;26.10;15.50;;;5.10;97.00;;;;;;5077150;28;20019;-78
2022/03/26 10:12:52;;;;;;;27.40;18.58;;;5.10;96.90;;;;;;5074437;28;20031;-77
2022/03/26 10:15:18;;;;;;;26.13;17.60;;;5.10;97.10;;;;;;5092167;28;20048;-78
2022/03/26 10:17:48;;;;;;;26.85;18.02;;;5.00;97.00;;;;;;5092001;28;20042;-80
2022/03/26 10:20:14;;;;;;;26.92;16.55;;;5.00;97.40;;;;;;5074218;28;20090;-79
2022/03/26 10:22:44;;;;;;;25.77;16.58;;;5.10;97.40;;;;;;5092124;28;20210;-77
2022/03/26 10:25:16;;;;;;;24.33;15.02;;;5.10;97.70;;;;;;5092380;28;20072;-80
2022/03/26 10:27:45;;;;;;;26.27;14.82;;;5.10;97.70;;;;;;5090739;28;20070;-80
2022/03/26 10:30:13;;;;;;;25.05;16.15;;;5.20;98.00;;;;;;5091232;28;20389;-78
2022/03/26 10:32:45;;;;;;;20.35;16.05;;;5.30;98.10;;;;;;5092466;28;20028;-79
2022/03/26 10:35:20;;;;;;;25.63;15.85;;;5.30;98.10;;;;;;5073157;28;20469;-78
2022/03/26 10:37:46;;;;;;;23.63;15.52;;;5.50;98.20;;;;;;5072341;28;20028;-78
2022/03/26 10:40:17;;;;;;;24.97;16.07;;;5.50;98.00;;;;;;5087591;28;20020;-81
2022/03/26 10:42:43;;;;;;;27.60;15.73;;;5.60;97.90;;;;;;5079815;28;20760;-80
2022/03/26 10:45:15;;;;;;;19.42;14.27;;;5.60;97.70;;;;;;5095517;28;20177;-81
2022/03/26 10:47:41;;;;;;;26.08;15.60;;;5.60;97.20;;;;;;5075244;28;20057;-83
2022/03/26 10:50:08;;;;;;;23.17;14.98;;;5.60;97.10;;;;;;5092396;28;20101;-81
2022/03/26 10:52:34;;;;;;;21.05;14.27;;;5.70;97.10;;;;;;5059554;28;20025;-80
2022/03/26 10:55:01;;;;;;;18.92;13.13;;;5.90;96.70;;;;;;5056990;28;20502;-83
2022/03/26 10:57:28;;;;;;;22.38;15.05;;;6.30;96.30;;;;;;5072815;28;20110;-82
2022/03/26 10:59:55;;;;;;;26.30;15.67;;;6.40;95.70;;;;;;5094268;28;20024;-81
2022/03/26 11:02:21;;;;;;;21.60;16.30;;;6.60;95.10;;;;;;5090580;28;20354;-82
2022/03/26 11:04:47;;;;;;;20.73;15.38;;;6.80;94.40;;;;;;5081768;28;20024;-83
2022/03/26 11:07:14;;;;;;;22.15;15.27;;;6.90;93.80;;;;;;5072105;28;20029;-82
2022/03/26 11:09:40;;;;;;;22.25;14.40;;;7.10;93.40;;;;;;5054134;28;20385;-83
2022/03/26 11:12:07;;;;;;;26.88;15.18;;;7.20;92.80;;;;;;5072622;28;20071;-82
2022/03/26 11:14:38;;;;;;;20.48;14.85;;;7.30;92.20;;;;;;5072999;28;20108;-83
2022/03/26 11:17:35;;;;;;;20.55;10.98;;;7.10;91.30;;;;;;5069464;28;20062;-82
2022/03/26 11:20:23;;;;;;;9.60;4.57;;;6.40;91.80;;;;;;5091512;28;20024;-82
2022/03/26 11:23:18;;;;;;;;;;;4.10;92.10;;;;;;5091607;28;20085;-78
2022/03/26 11:26:21;;;;;;;4.88;3.50;;;3.10;94.10;;;;;;5074404;28;19905;-78
2022/03/26 11:28:53;;;;;;;4.20;2.75;;;2.70;95.70;;;;;;5091696;28;20449;-79
2022/03/26 11:31:33;;;;;;;7.22;2.45;;;2.90;95.60;;;;;;5096746;28;20016;-82
2022/03/26 11:34:13;;;;;;;3.90;1.77;;;3.10;95.20;;;;;;5096856;28;20103;-80
2022/03/26 11:36:40;;;;;;;7.70;2.10;;;3.00;94.80;;;;;;5095855;28;20035;-81
2022/03/26 11:39:24;;;;;;;4.50;2.28;;;2.90;94.50;;;;;;5095708;28;20028;-80
2022/03/26 11:41:53;;;;;;;1.85;1.50;;;2.80;94.90;;;;;;5095128;28;20074;-79
2022/03/26 11:44:22;;;;;;;7.15;2.40;;;2.80;95.10;;;;;;5092978;28;20035;-79
2022/03/26 11:52:33;;;;;;;6.18;2.40;;;3.40;94.80;;;;;;5076151;28;20087;-79
2022/03/26 11:55:40;;;;;;;4.63;2.45;;;3.70;94.00;;;;;;5075513;28;20017;-79
2022/03/26 11:58:26;;;;;;;5.05;1.80;;;4.00;93.20;;;;;;5064554;28;20031;-79
2022/03/26 12:01:04;;;;;;;2.78;1.20;;;3.90;92.50;;;;;;5073736;28;20091;-78
2022/03/26 12:04:07;;;;;;;4.03;1.17;;;3.90;92.50;;;;;;5087847;28;20043;-79
2022/03/26 12:07:06;;;;;;;2.25;1.67;;;4.10;92.30;;;;;;5096192;28;20030;-79
2022/03/26 12:09:34;;;;;;;2.90;1.75;;;4.20;92.00;;;;;;5094636;28;20036;-78
2022/03/26 12:12:15;;;;;;;4.18;2.45;;;4.30;91.00;;;;;;5092591;28;20393;-80
2022/03/26 12:15:02;;;;;;;8.15;2.25;;;4.20;90.60;;;;;;5091978;28;20028;-80
2022/03/26 12:17:48;;;;;;;;;;;4.10;90.80;;;;;;5056631;28;20052;-79
2022/03/26 12:20:22;;;;;;;2.50;1.30;;;4.00;90.90;;;;;;5072727;28;19909;-77
2022/03/26 12:23:00;;;;;;;3.65;1.80;;;3.90;90.60;;;;;;5066473;28;20109;-78
2022/03/26 12:26:02;;;;;;;3.67;1.88;;;3.90;90.60;;;;;;5074515;28;20052;-78
2022/03/26 12:28:28;;;;;;;5.13;3.30;;;4.00;90.20;;;;;;5074210;28;20040;-78
2022/03/26 12:30:59;;;;;;;3.45;1.85;;;4.10;90.30;;;;;;5056445;28;20482;-80
2022/03/26 12:33:26;;;;;;;4.82;1.77;;;4.10;89.50;;;;;;5074891;28;20056;-81
2022/03/26 12:35:54;;;;;;;2.87;2.37;;;4.20;88.40;;;;;;5093372;28;20016;-78
2022/03/26 12:38:21;;;;;;;2.58;1.48;;;4.40;87.50;;;;;;5091466;28;20787;-78
2022/03/26 12:40:52;;;;;;;3.47;1.70;;;4.50;85.70;;;;;;5079351;28;20024;-83
2022/03/26 12:43:18;;;;;;;3.00;2.05;;;4.60;86.10;;;;;;5096548;28;20044;-81
2022/03/26 12:45:44;;;;;;;1.75;1.38;;;4.60;85.00;;;;;;5093546;28;20028;-81
2022/03/26 12:48:12;;;;;;;3.92;1.70;;;4.60;85.10;;;;;;5078530;28;20025;-78
2022/03/26 12:50:40;;;;;;;4.55;1.90;;;4.50;84.50;;;;;;5056143;28;20033;-80
2022/03/26 12:53:14;;;;;;;4.63;1.50;;;4.60;83.60;;;;;;5068524;28;20027;-79
2022/03/26 12:55:41;;;;;;;4.57;2.33;;;4.50;82.30;;;;;;5093984;28;20020;-80
2022/03/26 13:01:08;;;;;;;6.07;2.00;;;4.60;82.00;;;;;;5075152;28;20118;-77